Time;durP1;ratioP1;P1;durP2;ratioP2;P2;SDS_P1;SDS_P2;PMS_P1;PMS_P2;Temp;Humidity;BMP_temperature;BMP_pressure;BME280_temperature;BME280_humidity;BME280_pressure;Samples;Min_cycle;Max_cycle;Signal;HPM_P1;HPM_P2
2021/09/19 00:02:17;;;;;;;3.80;3.03;;;23.50;56.10;;;;;;5039678;28;20121;-57
2021/09/19 00:04:43;;;;;;;4.00;3.08;;;23.50;56.10;;;;;;5035564;28;20036;-57
2021/09/19 00:07:09;;;;;;;4.05;3.25;;;23.50;56.10;;;;;;5050305;28;20094;-57
2021/09/19 00:09:34;;;;;;;3.40;2.75;;;23.50;56.10;;;;;;5050910;28;20478;-56
2021/09/19 00:12:00;;;;;;;2.90;2.60;;;23.50;56.10;;;;;;5050566;28;20037;-55
2021/09/19 00:14:26;;;;;;;3.50;2.40;;;23.50;56.10;;;;;;5049088;28;20041;-55
2021/09/19 00:16:51;;;;;;;3.40;3.05;;;23.50;56.10;;;;;;5030987;28;20029;-63
2021/09/19 00:19:19;;;;;;;3.25;2.88;;;23.50;56.10;;;;;;5031088;28;20017;-55
2021/09/19 00:21:45;;;;;;;3.85;2.90;;;23.50;56.10;;;;;;5043539;28;20112;-55
2021/09/19 00:24:11;;;;;;;3.67;2.45;;;23.50;56.00;;;;;;5050129;28;20116;-55
2021/09/19 00:26:36;;;;;;;4.47;2.58;;;23.50;56.10;;;;;;5050709;28;20045;-56
2021/09/19 00:29:02;;;;;;;5.25;2.85;;;23.50;56.10;;;;;;5057285;28;20028;-56
2021/09/19 00:31:28;;;;;;;4.28;2.90;;;23.50;56.00;;;;;;5058216;28;20025;-55
2021/09/19 00:33:54;;;;;;;3.47;2.72;;;23.50;56.00;;;;;;5048811;28;20115;-64
2021/09/19 00:36:19;;;;;;;3.58;2.92;;;23.50;56.00;;;;;;5054849;28;20041;-55
2021/09/19 00:38:45;;;;;;;4.03;2.92;;;23.50;56.10;;;;;;5054644;28;20107;-57
2021/09/19 00:41:11;;;;;;;4.22;2.78;;;23.50;56.10;;;;;;5051767;28;20073;-57
2021/09/19 00:43:36;;;;;;;8.80;3.20;;;23.50;56.10;;;;;;5035206;28;20040;-55
2021/09/19 00:46:02;;;;;;;10.23;3.17;;;23.50;55.10;;;;;;5046160;28;20095;-56
2021/09/19 00:48:28;;;;;;;7.30;3.03;;;23.50;54.50;;;;;;5053365;28;20095;-55
2021/09/19 00:50:54;;;;;;;5.00;2.63;;;23.50;54.30;;;;;;5051457;28;20037;-63
2021/09/19 00:53:21;;;;;;;7.38;3.13;;;23.50;54.80;;;;;;5053784;28;20120;-57
2021/09/19 00:55:49;;;;;;;6.35;2.63;;;23.50;55.00;;;;;;5034558;28;20036;-55
2021/09/19 00:58:17;;;;;;;4.10;2.88;;;23.50;54.90;;;;;;5035099;28;20113;-57
2021/09/19 01:00:48;;;;;;;4.57;3.30;;;23.50;54.70;;;;;;5058531;28;20106;-56
2021/09/19 01:03:15;;;;;;;6.88;3.00;;;23.50;54.70;;;;;;5047478;28;20104;-55
2021/09/19 01:05:42;;;;;;;3.97;3.05;;;23.50;54.70;;;;;;5047074;28;20037;-55
2021/09/19 01:08:08;;;;;;;5.13;2.95;;;23.50;54.70;;;;;;5033623;28;20034;-57
2021/09/19 01:10:35;;;;;;;4.68;2.85;;;23.40;54.60;;;;;;5038628;28;20040;-55
2021/09/19 01:13:01;;;;;;;5.40;2.45;;;23.40;54.60;;;;;;5051808;28;20501;-61
2021/09/19 01:15:27;;;;;;;4.65;2.78;;;23.40;54.60;;;;;;5052822;28;20021;-56
2021/09/19 01:17:53;;;;;;;2.85;2.55;;;23.40;54.50;;;;;;5054290;28;20190;-63
2021/09/19 01:20:20;;;;;;;3.20;2.35;;;23.40;54.50;;;;;;5047213;28;20060;-54
2021/09/19 01:22:59;;;;;;;3.15;2.55;;;23.40;54.40;;;;;;5034047;28;20026;-56
2021/09/19 01:25:26;;;;;;;9.48;3.40;;;23.40;54.40;;;;;;5060662;28;20465;-55
2021/09/19 01:27:51;;;;;;;4.22;2.60;;;23.40;54.30;;;;;;5054447;28;20454;-57
2021/09/19 01:30:17;;;;;;;8.93;2.88;;;23.40;54.40;;;;;;5057539;28;20087;-56
2021/09/19 01:32:43;;;;;;;3.60;2.92;;;23.40;54.40;;;;;;5054101;28;20067;-54
2021/09/19 01:35:10;;;;;;;3.05;2.50;;;23.40;54.80;;;;;;5052899;28;20059;-55
2021/09/19 01:37:36;;;;;;;3.85;2.95;;;23.40;54.80;;;;;;5051699;28;20112;-55
2021/09/19 01:40:03;;;;;;;4.60;2.55;;;23.40;54.70;;;;;;5051844;28;20049;-57
2021/09/19 01:42:29;;;;;;;7.18;2.63;;;23.40;54.60;;;;;;5052754;28;20096;-57
2021/09/19 01:44:55;;;;;;;4.15;2.72;;;23.40;54.60;;;;;;5052397;28;20108;-63
2021/09/19 01:47:21;;;;;;;3.70;2.63;;;23.40;54.60;;;;;;5052952;28;20124;-56
2021/09/19 01:49:47;;;;;;;3.65;2.90;;;23.40;54.60;;;;;;5053496;28;20087;-55
2021/09/19 01:52:15;;;;;;;3.40;3.10;;;23.40;54.50;;;;;;5052142;28;20037;-55
2021/09/19 01:54:40;;;;;;;4.38;2.67;;;23.40;54.40;;;;;;5040834;28;20037;-55
2021/09/19 01:57:06;;;;;;;3.30;2.95;;;23.40;54.50;;;;;;5048065;28;20462;-55
2021/09/19 01:59:33;;;;;;;5.20;3.13;;;23.40;54.40;;;;;;5064952;28;20043;-55
2021/09/19 02:01:58;;;;;;;3.15;2.85;;;23.40;54.50;;;;;;5043002;28;20440;-62
2021/09/19 02:04:24;;;;;;;3.78;2.55;;;23.40;54.40;;;;;;5033551;28;20061;-55
2021/09/19 02:06:49;;;;;;;3.38;2.67;;;23.40;54.30;;;;;;5052308;28;20045;-55
2021/09/19 02:09:15;;;;;;;4.05;3.45;;;23.40;54.20;;;;;;5058083;28;20073;-55
2021/09/19 02:11:41;;;;;;;2.83;2.55;;;23.40;54.20;;;;;;5051183;28;20480;-55
2021/09/19 02:14:06;;;;;;;5.32;2.75;;;23.40;54.10;;;;;;5052237;28;20451;-55
2021/09/19 02:16:32;;;;;;;4.60;2.95;;;23.40;54.10;;;;;;5042243;28;20113;-55
2021/09/19 02:18:58;;;;;;;4.38;3.35;;;23.40;54.10;;;;;;5032531;28;20025;-63
2021/09/19 02:21:24;;;;;;;5.75;3.05;;;23.40;54.10;;;;;;5035240;28;20109;-55
2021/09/19 02:23:49;;;;;;;3.20;2.65;;;23.40;54.10;;;;;;5052764;28;20060;-55
2021/09/19 02:26:15;;;;;;;3.38;2.60;;;23.40;54.00;;;;;;5043614;28;20065;-55
2021/09/19 02:28:41;;;;;;;4.13;2.85;;;23.40;54.00;;;;;;5033202;28;20029;-55
2021/09/19 02:31:06;;;;;;;3.78;2.90;;;23.40;53.90;;;;;;5032206;28;20040;-55
2021/09/19 02:33:34;;;;;;;6.68;2.83;;;23.40;54.00;;;;;;5033239;28;20044;-55
2021/09/19 02:36:00;;;;;;;5.57;2.70;;;23.40;54.00;;;;;;5037890;28;20376;-63
2021/09/19 02:38:26;;;;;;;5.88;3.17;;;23.40;54.60;;;;;;5052770;28;20398;-55
2021/09/19 02:40:52;;;;;;;4.45;2.75;;;23.40;53.90;;;;;;5066231;28;20027;-56
2021/09/19 02:43:22;;;;;;;4.47;2.80;;;23.40;53.90;;;;;;5032665;28;20116;-58
2021/09/19 02:45:49;;;;;;;3.33;2.95;;;23.40;53.90;;;;;;5032766;28;20049;-54
2021/09/19 02:48:15;;;;;;;3.30;2.75;;;23.40;53.90;;;;;;5031892;28;20030;-55
2021/09/19 02:50:42;;;;;;;3.75;2.40;;;23.30;53.80;;;;;;5046261;28;20025;-55
2021/09/19 02:53:07;;;;;;;4.72;2.72;;;23.40;53.90;;;;;;5050829;28;20443;-55
2021/09/19 02:55:33;;;;;;;2.95;2.65;;;23.30;53.80;;;;;;5049479;28;20076;-55
2021/09/19 02:57:59;;;;;;;3.83;3.00;;;23.30;53.80;;;;;;5031709;28;20056;-63
2021/09/19 03:00:24;;;;;;;4.13;2.50;;;23.30;53.80;;;;;;5032104;28;20050;-57
2021/09/19 03:02:51;;;;;;;3.90;2.92;;;23.30;53.80;;;;;;5031207;28;20447;-56
2021/09/19 03:05:18;;;;;;;3.35;2.78;;;23.30;53.80;;;;;;5032631;28;20180;-56
2021/09/19 03:07:44;;;;;;;3.00;2.70;;;23.30;53.70;;;;;;5032248;28;20041;-57
2021/09/19 03:10:11;;;;;;;4.63;2.95;;;23.30;53.80;;;;;;5057141;28;20036;-58
2021/09/19 03:12:37;;;;;;;4.65;2.97;;;23.30;53.70;;;;;;5031622;28;20033;-56
2021/09/19 03:15:04;;;;;;;3.97;2.50;;;23.30;53.70;;;;;;5039976;28;20037;-55
2021/09/19 03:17:30;;;;;;;3.55;2.97;;;23.40;53.70;;;;;;5039003;28;20032;-56
2021/09/19 03:19:56;;;;;;;4.78;2.80;;;23.30;53.60;;;;;;5052247;28;20032;-54
2021/09/19 03:22:21;;;;;;;4.25;2.97;;;23.30;53.60;;;;;;5033280;28;20060;-54
2021/09/19 03:24:47;;;;;;;4.38;2.92;;;23.40;53.60;;;;;;5032877;28;20041;-55
2021/09/19 03:27:13;;;;;;;3.47;2.70;;;23.30;53.60;;;;;;5046032;28;20041;-57
2021/09/19 03:29:39;;;;;;;3.33;2.47;;;23.30;53.50;;;;;;5051654;28;20130;-56
2021/09/19 03:32:05;;;;;;;3.78;2.83;;;23.40;53.60;;;;;;5035813;28;20033;-57
2021/09/19 03:34:33;;;;;;;3.88;2.97;;;23.30;53.50;;;;;;5032077;28;20042;-56
2021/09/19 03:37:00;;;;;;;2.97;2.67;;;23.30;53.50;;;;;;5031326;28;20095;-62
2021/09/19 03:39:26;;;;;;;5.93;3.20;;;23.40;53.50;;;;;;5047083;28;20039;-56
2021/09/19 03:41:51;;;;;;;3.80;2.97;;;23.40;53.50;;;;;;5051199;28;20022;-57
2021/09/19 03:44:17;;;;;;;3.35;2.97;;;23.40;53.60;;;;;;5053331;28;20442;-55
2021/09/19 03:46:42;;;;;;;4.82;2.70;;;23.30;53.50;;;;;;5035630;28;20033;-55
2021/09/19 03:49:08;;;;;;;5.82;2.75;;;23.30;53.50;;;;;;5038348;28;20029;-56
2021/09/19 03:51:34;;;;;;;4.78;2.95;;;23.30;53.50;;;;;;5051938;28;20446;-58
2021/09/19 03:53:59;;;;;;;3.70;2.90;;;23.30;53.50;;;;;;5050987;28;20108;-63
2021/09/19 03:56:25;;;;;;;4.18;3.22;;;23.30;53.40;;;;;;5050585;28;20036;-55
2021/09/19 03:58:50;;;;;;;5.53;3.30;;;23.30;53.40;;;;;;5043684;28;20029;-57
2021/09/19 04:01:16;;;;;;;4.43;3.03;;;23.30;53.40;;;;;;5030884;28;20054;-55
2021/09/19 04:03:42;;;;;;;4.78;2.90;;;23.30;53.40;;;;;;5031776;28;20075;-55
2021/09/19 04:06:08;;;;;;;3.72;3.22;;;23.30;53.30;;;;;;5037423;28;20029;-55
2021/09/19 04:08:34;;;;;;;11.60;5.20;;;23.30;53.30;;;;;;5035600;28;20123;-55
2021/09/19 04:10:59;;;;;;;5.85;3.35;;;23.30;52.80;;;;;;5037442;28;20033;-62
2021/09/19 04:13:25;;;;;;;6.38;3.15;;;23.30;53.10;;;;;;5044804;28;20484;-55
2021/09/19 04:15:51;;;;;;;4.35;2.85;;;23.30;53.30;;;;;;5070116;28;20497;-57
2021/09/19 04:18:17;;;;;;;6.10;2.95;;;23.30;53.60;;;;;;5047866;28;20025;-55
2021/09/19 04:20:43;;;;;;;9.13;3.20;;;23.30;54.00;;;;;;5034100;28;20033;-56
2021/09/19 04:23:09;;;;;;;5.97;3.30;;;23.30;54.10;;;;;;5034542;28;20553;-55
2021/09/19 04:25:35;;;;;;;3.80;2.80;;;23.30;54.10;;;;;;5036690;28;20025;-53
2021/09/19 04:28:01;;;;;;;4.93;3.00;;;23.30;54.20;;;;;;5062849;28;20040;-62
2021/09/19 04:30:27;;;;;;;3.85;3.00;;;23.30;54.20;;;;;;5070043;28;20477;-55
2021/09/19 04:32:52;;;;;;;6.63;3.13;;;23.30;54.80;;;;;;5035279;28;20080;-55
2021/09/19 04:35:18;;;;;;;7.80;3.33;;;23.30;54.20;;;;;;5034450;28;20041;-57
2021/09/19 04:37:44;;;;;;;4.80;2.95;;;23.30;54.30;;;;;;5057891;28;20025;-56
2021/09/19 04:40:10;;;;;;;3.78;2.80;;;23.30;54.30;;;;;;5054163;28;20429;-55
2021/09/19 04:42:36;;;;;;;7.68;3.42;;;23.30;54.30;;;;;;5051744;28;20029;-56
2021/09/19 04:45:02;;;;;;;5.13;2.72;;;23.30;54.30;;;;;;5042362;28;20038;-61
2021/09/19 04:47:28;;;;;;;5.20;2.88;;;23.30;54.40;;;;;;5034805;28;20091;-55
2021/09/19 04:49:53;;;;;;;5.50;3.03;;;23.30;54.40;;;;;;5034938;28;20375;-52
2021/09/19 04:52:19;;;;;;;3.78;2.60;;;23.30;54.40;;;;;;5033787;28;20044;-55
2021/09/19 04:54:45;;;;;;;3.35;2.55;;;23.30;54.40;;;;;;5033644;28;20029;-55
2021/09/19 04:57:10;;;;;;;5.30;3.55;;;23.30;54.40;;;;;;5049829;28;20054;-55
2021/09/19 04:59:36;;;;;;;4.00;2.60;;;23.30;54.40;;;;;;5054238;28;20057;-55
2021/09/19 05:02:03;;;;;;;4.18;2.88;;;23.30;54.40;;;;;;5053537;28;20053;-62
2021/09/19 05:04:29;;;;;;;5.13;2.83;;;23.30;54.40;;;;;;5054439;28;20032;-54
2021/09/19 05:06:54;;;;;;;7.13;3.20;;;23.30;54.40;;;;;;5056326;28;20501;-55
2021/09/19 05:09:20;;;;;;;3.58;3.00;;;23.30;54.50;;;;;;5040439;28;20032;-55
2021/09/19 05:11:46;;;;;;;6.88;3.17;;;23.30;54.30;;;;;;5045858;28;20031;-55
2021/09/19 05:14:12;;;;;;;4.00;2.70;;;23.30;54.30;;;;;;5036815;28;20029;-55
2021/09/19 05:16:38;;;;;;;3.42;2.83;;;23.30;54.20;;;;;;5054404;28;20025;-55
2021/09/19 05:19:05;;;;;;;3.90;2.97;;;23.30;54.20;;;;;;5053391;28;20471;-62
2021/09/19 05:21:30;;;;;;;4.70;3.15;;;23.30;54.10;;;;;;5049578;28;20025;-55
2021/09/19 05:23:56;;;;;;;6.10;3.03;;;23.30;54.10;;;;;;5053570;28;20115;-57
2021/09/19 05:26:22;;;;;;;6.32;3.47;;;23.30;53.80;;;;;;5042992;28;20612;-55
2021/09/19 05:28:48;;;;;;;6.68;3.53;;;23.30;53.00;;;;;;5034055;28;20733;-55
2021/09/19 05:31:14;;;;;;;5.20;2.90;;;23.30;52.70;;;;;;5033282;28;20033;-55
2021/09/19 05:33:41;;;;;;;5.18;3.00;;;23.40;52.80;;;;;;5034133;28;20033;-55
2021/09/19 05:36:07;;;;;;;4.65;3.10;;;23.40;52.80;;;;;;5035342;28;20061;-57
2021/09/19 05:38:32;;;;;;;10.23;3.13;;;23.40;52.70;;;;;;5063873;28;20454;-56
2021/09/19 05:40:58;;;;;;;4.03;2.80;;;23.40;52.70;;;;;;5049963;28;20025;-55
2021/09/19 05:43:24;;;;;;;5.05;2.88;;;23.50;52.60;;;;;;5049355;28;20029;-49
2021/09/19 05:45:50;;;;;;;7.10;3.03;;;23.50;52.50;;;;;;5048178;28;20398;-57
2021/09/19 05:48:16;;;;;;;4.68;3.05;;;23.60;52.50;;;;;;5052472;28;20025;-57
2021/09/19 05:50:41;;;;;;;5.22;2.95;;;23.60;53.20;;;;;;5052656;28;20056;-53
2021/09/19 05:53:07;;;;;;;5.85;3.15;;;23.60;52.70;;;;;;5051334;28;20514;-61
2021/09/19 05:55:32;;;;;;;5.80;3.05;;;23.60;52.80;;;;;;5052574;28;20040;-56
2021/09/19 05:57:58;;;;;;;10.52;4.03;;;23.60;52.50;;;;;;5035391;28;20064;-59
2021/09/19 06:00:24;;;;;;;8.80;2.60;;;23.70;52.20;;;;;;5064652;28;20845;-57
2021/09/19 06:02:50;;;;;;;3.80;2.33;;;23.80;52.20;;;;;;5033545;28;20033;-57
2021/09/19 06:05:15;;;;;;;4.70;2.67;;;23.80;52.30;;;;;;5032392;28;20025;-58
2021/09/19 06:07:41;;;;;;;4.03;2.67;;;23.80;52.30;;;;;;5033619;28;20036;-57
2021/09/19 06:10:08;;;;;;;5.28;2.95;;;23.80;52.40;;;;;;5034308;28;20467;-62
2021/09/19 06:12:33;;;;;;;8.05;2.88;;;23.80;52.10;;;;;;5041098;28;20017;-54
2021/09/19 06:14:59;;;;;;;5.63;2.83;;;23.90;52.50;;;;;;5051256;28;20037;-57
2021/09/19 06:17:25;;;;;;;7.60;3.22;;;23.90;52.80;;;;;;5051992;28;20767;-56
2021/09/19 06:19:51;;;;;;;5.63;4.95;;;23.80;51.60;;;;;;5053159;28;20470;-55
2021/09/19 06:22:18;;;;;;;7.35;4.82;;;22.20;50.50;;;;;;5051790;28;20036;-55
2021/09/19 06:24:45;;;;;;;6.82;4.78;;;21.10;53.50;;;;;;5052851;28;20039;-56
2021/09/19 06:27:14;;;;;;;6.20;4.78;;;20.50;55.20;;;;;;5049644;28;20078;-50
2021/09/19 06:29:41;;;;;;;6.50;5.68;;;20.20;56.10;;;;;;5057438;28;20093;-50
2021/09/19 06:32:08;;;;;;;10.43;5.50;;;20.10;56.70;;;;;;5040636;28;20120;-60
2021/09/19 06:34:37;;;;;;;6.78;5.20;;;19.90;57.70;;;;;;5032535;28;20117;-55
2021/09/19 06:37:05;;;;;;;6.78;5.25;;;19.90;57.30;;;;;;5031682;28;20034;-55
2021/09/19 06:39:31;;;;;;;7.38;5.10;;;19.90;57.30;;;;;;5034029;28;20029;-53
2021/09/19 06:41:57;;;;;;;6.45;5.05;;;19.80;57.70;;;;;;5067142;28;20461;-53
2021/09/19 06:44:24;;;;;;;8.25;5.53;;;19.90;57.30;;;;;;5060310;28;20112;-49
2021/09/19 06:46:53;;;;;;;10.10;5.18;;;19.80;57.60;;;;;;5037146;28;20479;-51
2021/09/19 06:49:20;;;;;;;6.82;5.03;;;19.80;57.90;;;;;;5071463;28;20363;-48
2021/09/19 06:51:46;;;;;;;8.05;4.55;;;19.80;57.60;;;;;;5059087;28;20100;-53
2021/09/19 06:54:12;;;;;;;5.38;4.55;;;19.70;57.70;;;;;;5051366;28;20036;-55
2021/09/19 06:56:38;;;;;;;5.45;4.55;;;19.60;58.00;;;;;;5051777;28;20024;-51
2021/09/19 06:59:04;;;;;;;5.88;4.50;;;19.50;58.50;;;;;;5051465;28;20111;-51
2021/09/19 07:01:30;;;;;;;9.68;4.88;;;19.40;59.30;;;;;;5040872;28;20165;-49
2021/09/19 07:03:55;;;;;;;7.60;4.72;;;19.40;59.00;;;;;;5032189;28;20112;-49
2021/09/19 07:06:21;;;;;;;5.43;4.50;;;19.30;59.10;;;;;;5040173;28;20441;-49
2021/09/19 07:08:47;;;;;;;4.75;4.25;;;19.40;58.80;;;;;;5046627;28;20108;-51
2021/09/19 07:11:13;;;;;;;5.20;4.05;;;19.40;58.50;;;;;;5044901;28;20029;-53
2021/09/19 07:13:40;;;;;;;5.55;3.88;;;19.40;58.60;;;;;;5051418;28;20044;-49
2021/09/19 07:16:06;;;;;;;7.28;3.90;;;19.50;58.20;;;;;;5050142;28;20033;-58
2021/09/19 07:18:32;;;;;;;4.80;4.00;;;19.40;57.90;;;;;;5050072;28;20104;-52
2021/09/19 07:20:57;;;;;;;7.03;4.00;;;19.50;58.00;;;;;;5049073;28;20104;-51
2021/09/19 07:23:24;;;;;;;6.82;3.95;;;19.40;58.10;;;;;;5051757;28;20470;-50
2021/09/19 07:25:51;;;;;;;4.93;3.67;;;19.40;58.30;;;;;;5050256;28;20029;-48
2021/09/19 07:28:18;;;;;;;6.97;3.80;;;19.40;58.40;;;;;;5050855;28;20021;-53
2021/09/19 07:30:43;;;;;;;4.20;3.35;;;19.40;58.50;;;;;;5047037;28;20033;-55
2021/09/19 07:33:10;;;;;;;4.28;3.53;;;19.40;58.80;;;;;;5050119;28;20512;-61
2021/09/19 07:35:36;;;;;;;6.78;3.70;;;19.50;58.70;;;;;;5048884;28;20037;-52
2021/09/19 07:38:03;;;;;;;3.95;3.33;;;19.50;58.60;;;;;;5034040;28;20032;-50
2021/09/19 07:40:30;;;;;;;6.78;3.30;;;19.60;58.30;;;;;;5049350;28;20033;-50
2021/09/19 07:42:59;;;;;;;4.03;3.03;;;19.70;58.00;;;;;;5052000;28;20033;-47
2021/09/19 07:45:26;;;;;;;4.88;3.00;;;19.70;58.20;;;;;;5050572;28;20074;-47
2021/09/19 07:47:52;;;;;;;4.20;3.15;;;19.90;57.40;;;;;;5051098;28;20048;-46
2021/09/19 07:50:18;;;;;;;7.50;3.00;;;20.00;56.70;;;;;;5051443;28;20536;-47
2021/09/19 07:52:44;;;;;;;4.00;3.00;;;20.30;56.50;;;;;;5050677;28;20029;-46
2021/09/19 07:55:16;;;;;;;8.68;3.40;;;20.50;55.80;;;;;;5036145;28;20049;-56
2021/09/19 07:57:43;;;;;;;3.70;3.03;;;20.60;55.50;;;;;;5032047;28;20047;-46
2021/09/19 08:00:09;;;;;;;3.60;2.97;;;20.70;55.30;;;;;;5030957;28;20128;-54
2021/09/19 08:02:35;;;;;;;5.07;3.03;;;20.70;55.30;;;;;;5029942;28;20533;-47
2021/09/19 08:05:01;;;;;;;3.90;3.00;;;20.80;55.10;;;;;;5042445;28;20037;-49
2021/09/19 08:07:26;;;;;;;4.78;2.85;;;20.70;55.30;;;;;;5047805;28;20029;-46
2021/09/19 08:09:52;;;;;;;5.18;3.10;;;20.60;55.50;;;;;;5051075;28;20048;-46
2021/09/19 08:12:18;;;;;;;4.75;2.95;;;20.60;55.50;;;;;;5033031;28;20033;-45
2021/09/19 08:14:44;;;;;;;8.90;2.78;;;20.50;55.70;;;;;;5044591;28;20028;-48
2021/09/19 08:17:09;;;;;;;5.55;2.60;;;20.70;55.60;;;;;;5035354;28;20037;-57
2021/09/19 08:19:35;;;;;;;3.03;2.63;;;20.70;55.10;;;;;;5031539;28;20375;-47
2021/09/19 08:22:01;;;;;;;4.13;2.60;;;20.60;55.30;;;;;;5032826;28;20029;-46
2021/09/19 08:24:27;;;;;;;5.22;3.05;;;20.50;55.30;;;;;;5050685;28;20035;-46
2021/09/19 08:26:53;;;;;;;3.83;2.92;;;20.70;55.00;;;;;;5036970;28;20041;-46
2021/09/19 08:29:19;;;;;;;3.95;3.45;;;20.80;54.70;;;;;;5046934;28;20040;-49
2021/09/19 08:31:44;;;;;;;4.90;3.10;;;20.70;55.30;;;;;;5049549;28;20047;-46
2021/09/19 08:34:10;;;;;;;3.95;2.47;;;20.60;55.50;;;;;;5050774;28;20032;-54
2021/09/19 08:36:36;;;;;;;5.63;2.85;;;20.70;55.80;;;;;;5043204;28;20036;-46
2021/09/19 08:39:05;;;;;;;3.60;2.85;;;20.70;55.60;;;;;;5040216;28;20112;-48
2021/09/19 08:41:30;;;;;;;6.20;2.95;;;20.70;55.60;;;;;;5040326;28;20068;-46
2021/09/19 08:43:57;;;;;;;2.97;2.28;;;20.80;55.40;;;;;;5051287;28;20068;-47
2021/09/19 08:46:23;;;;;;;6.55;2.35;;;20.80;55.60;;;;;;5049988;28;20037;-53
2021/09/19 08:48:49;;;;;;;3.55;2.65;;;20.70;56.10;;;;;;5051008;28;20108;-47
2021/09/19 08:51:16;;;;;;;3.75;2.67;;;20.80;55.70;;;;;;5050877;28;20086;-46
2021/09/19 08:53:42;;;;;;;7.25;3.08;;;20.80;55.70;;;;;;5054000;28;20087;-47
2021/09/19 08:56:08;;;;;;;4.47;3.30;;;21.00;55.70;;;;;;5053620;28;20458;-48
2021/09/19 08:58:34;;;;;;;7.28;2.85;;;21.00;55.40;;;;;;5052188;28;20381;-47
2021/09/19 09:01:01;;;;;;;3.30;2.92;;;21.00;55.40;;;;;;5053943;28;20102;-60
2021/09/19 09:03:29;;;;;;;4.70;2.60;;;21.00;55.70;;;;;;5053571;28;20471;-57
2021/09/19 09:06:04;;;;;;;8.05;3.13;;;21.10;55.40;;;;;;5054186;28;20095;-47
2021/09/19 09:08:31;;;;;;;8.68;2.97;;;21.00;55.40;;;;;;5053453;28;20106;-56
2021/09/19 09:11:02;;;;;;;2.67;2.38;;;21.00;55.70;;;;;;5048136;28;20036;-48
2021/09/19 09:13:30;;;;;;;3.92;2.53;;;21.00;55.10;;;;;;5033574;28;20055;-44
2021/09/19 09:16:04;;;;;;;4.75;2.42;;;21.10;55.00;;;;;;5034711;28;20067;-47
2021/09/19 09:18:39;;;;;;;4.38;2.58;;;21.20;55.30;;;;;;5034622;28;20029;-47
2021/09/19 09:21:14;;;;;;;6.30;3.08;;;21.30;55.30;;;;;;5039950;28;20068;-45
2021/09/19 09:23:45;;;;;;;4.93;2.80;;;21.20;55.30;;;;;;5052622;28;20047;-43
2021/09/19 09:26:14;;;;;;;3.55;2.80;;;21.20;55.20;;;;;;5045605;28;20038;-58
2021/09/19 09:28:48;;;;;;;3.70;3.30;;;21.10;55.30;;;;;;5044579;28;20035;-49
2021/09/19 09:31:28;;;;;;;4.10;2.35;;;21.10;55.30;;;;;;5051594;28;20037;-59
2021/09/19 09:34:01;;;;;;;3.30;2.75;;;21.20;55.50;;;;;;5054129;28;20029;-49
2021/09/19 09:36:40;;;;;;;4.32;2.95;;;21.10;55.50;;;;;;5052856;28;20390;-46
2021/09/19 09:39:34;;;;;;;4.28;3.15;;;21.20;55.30;;;;;;5053688;28;20032;-48
2021/09/19 09:42:07;;;;;;;3.97;2.63;;;21.10;55.30;;;;;;5043778;28;20021;-48
2021/09/19 09:44:41;;;;;;;5.95;2.90;;;20.90;55.70;;;;;;5036085;28;20277;-58
2021/09/19 09:47:12;;;;;;;5.03;2.70;;;21.00;56.10;;;;;;5052751;28;20071;-55
2021/09/19 09:49:47;;;;;;;3.67;2.58;;;21.10;55.30;;;;;;5052901;28;20104;-56
2021/09/19 09:52:25;;;;;;;4.43;2.60;;;20.90;55.60;;;;;;5035910;28;20036;-67
2021/09/19 09:54:54;;;;;;;5.78;2.65;;;20.80;55.90;;;;;;5033031;28;20479;-56
2021/09/19 09:57:40;;;;;;;3.25;2.75;;;20.80;56.00;;;;;;5032255;28;20021;-56
2021/09/19 10:00:12;;;;;;;3.53;2.42;;;20.70;56.10;;;;;;5022347;28;20033;-56
2021/09/19 10:02:40;;;;;;;6.38;2.80;;;20.70;56.10;;;;;;5031422;28;20119;-56
2021/09/19 10:05:07;;;;;;;4.32;2.90;;;20.70;56.20;;;;;;5033466;28;20040;-56
2021/09/19 10:07:35;;;;;;;4.20;3.15;;;20.80;56.60;;;;;;5031895;28;20098;-55
2021/09/19 10:10:04;;;;;;;5.32;2.88;;;20.90;56.10;;;;;;5040700;28;20035;-57
2021/09/19 10:12:29;;;;;;;3.40;2.50;;;21.00;55.90;;;;;;5058026;28;20028;-63
2021/09/19 10:14:55;;;;;;;7.60;3.05;;;21.20;56.00;;;;;;5059476;28;20028;-58
2021/09/19 10:17:23;;;;;;;9.02;3.30;;;21.20;55.90;;;;;;5067582;28;20036;-60
2021/09/19 10:19:51;;;;;;;5.05;3.25;;;21.20;55.50;;;;;;5062182;28;20463;-61
2021/09/19 10:22:27;;;;;;;5.35;2.90;;;21.20;55.20;;;;;;5058383;28;20025;-61
2021/09/19 10:24:53;;;;;;;6.75;2.50;;;21.30;55.50;;;;;;5067447;28;20462;-58
2021/09/19 10:27:25;;;;;;;10.40;2.92;;;21.50;55.00;;;;;;5051907;28;20037;-61
2021/09/19 10:30:06;;;;;;;4.28;3.03;;;21.60;55.20;;;;;;5040109;28;20020;-66
2021/09/19 10:32:42;;;;;;;4.15;3.13;;;21.40;54.90;;;;;;5041571;28;20029;-63
2021/09/19 10:35:17;;;;;;;4.85;3.35;;;21.30;54.90;;;;;;5064455;28;20111;-48
2021/09/19 10:38:04;;;;;;;4.95;2.90;;;21.40;55.30;;;;;;5060383;28;20024;-60
2021/09/19 10:40:36;;;;;;;7.82;3.33;;;21.50;55.00;;;;;;5060599;28;20112;-65
2021/09/19 10:43:22;;;;;;;6.60;3.50;;;21.60;55.60;;;;;;5063541;28;20025;-60
2021/09/19 10:45:52;;;;;;;4.03;3.13;;;21.50;55.80;;;;;;5058062;28;20037;-68
2021/09/19 10:48:29;;;;;;;4.50;3.42;;;21.50;57.00;;;;;;5063079;28;20036;-69
2021/09/19 10:51:06;;;;;;;3.42;2.83;;;21.50;56.00;;;;;;5058515;28;20375;-59
2021/09/19 10:53:44;;;;;;;3.72;2.53;;;21.70;56.30;;;;;;5054677;28;20086;-64
2021/09/19 10:56:10;;;;;;;4.57;2.33;;;22.00;55.30;;;;;;5070533;28;20028;-64
2021/09/19 10:58:41;;;;;;;2.83;2.05;;;22.30;54.50;;;;;;5065361;28;20025;-64
2021/09/19 11:01:15;;;;;;;2.33;1.95;;;22.50;54.00;;;;;;5046251;28;20053;-62
2021/09/19 11:04:02;;;;;;;5.65;2.63;;;22.60;53.50;;;;;;5065482;28;20036;-60
2021/09/19 11:06:27;;;;;;;2.17;1.95;;;22.70;53.10;;;;;;5047454;28;20048;-60
2021/09/19 11:08:53;;;;;;;2.88;2.50;;;22.80;53.10;;;;;;5063354;28;20037;-61
2021/09/19 11:11:21;;;;;;;2.92;1.88;;;22.90;52.70;;;;;;5055134;28;20055;-62
2021/09/19 11:13:55;;;;;;;3.38;2.05;;;22.90;53.10;;;;;;5053506;28;20155;-64
2021/09/19 11:16:31;;;;;;;2.95;2.20;;;23.00;52.70;;;;;;5061609;28;20029;-58
2021/09/19 11:19:00;;;;;;;5.35;2.20;;;23.00;52.50;;;;;;5046889;28;20028;-63
2021/09/19 11:21:26;;;;;;;4.32;2.42;;;23.00;52.90;;;;;;5055566;28;20024;-56
2021/09/19 11:24:07;;;;;;;5.00;2.25;;;23.00;53.30;;;;;;5057348;28;20043;-59
2021/09/19 11:26:46;;;;;;;6.45;2.60;;;23.10;53.10;;;;;;5056444;28;20025;-60
2021/09/19 11:29:14;;;;;;;5.22;2.38;;;23.10;52.70;;;;;;5053576;28;20124;-55
2021/09/19 11:31:43;;;;;;;4.63;2.85;;;23.10;53.00;;;;;;5055237;28;20060;-57
2021/09/19 11:34:15;;;;;;;6.28;2.47;;;23.10;52.70;;;;;;5056686;28;20037;-56
2021/09/19 11:36:56;;;;;;;4.05;2.30;;;23.10;52.90;;;;;;5054117;28;20028;-58
2021/09/19 11:39:22;;;;;;;5.20;3.97;;;23.20;53.00;;;;;;5044981;28;20466;-62
2021/09/19 11:41:49;;;;;;;6.18;2.10;;;23.20;53.00;;;;;;5038803;28;20045;-61
2021/09/19 11:44:16;;;;;;;3.00;2.20;;;23.20;52.80;;;;;;5053535;28;20037;-61
2021/09/19 11:46:50;;;;;;;4.18;2.13;;;23.30;53.30;;;;;;5042130;28;20035;-52
2021/09/19 11:49:17;;;;;;;6.38;2.25;;;23.30;53.00;;;;;;5060992;28;20484;-57
2021/09/19 11:51:44;;;;;;;6.20;2.03;;;23.40;52.90;;;;;;5065444;28;20078;-60
2021/09/19 11:54:13;;;;;;;5.55;2.35;;;23.40;53.00;;;;;;5043710;28;20047;-53
2021/09/19 11:56:42;;;;;;;3.88;2.42;;;23.40;52.90;;;;;;5049678;28;20024;-58
2021/09/19 11:59:11;;;;;;;6.07;2.45;;;23.40;52.80;;;;;;5056365;28;20036;-57
2021/09/19 12:01:38;;;;;;;7.40;2.35;;;23.50;52.50;;;;;;5047335;28;20080;-60
2021/09/19 12:04:05;;;;;;;6.35;2.00;;;23.50;52.60;;;;;;5067531;28;20029;-59
2021/09/19 12:06:31;;;;;;;4.85;2.17;;;23.50;52.80;;;;;;5054329;28;20025;-55
2021/09/19 12:08:57;;;;;;;3.55;2.20;;;23.40;52.50;;;;;;5062707;28;20113;-52
2021/09/19 12:11:45;;;;;;;4.97;2.50;;;23.40;52.70;;;;;;5060267;28;20024;-55
2021/09/19 12:14:13;;;;;;;4.25;1.98;;;23.40;52.60;;;;;;5054201;28;20041;-58
2021/09/19 12:16:39;;;;;;;3.60;2.40;;;23.50;52.90;;;;;;5062502;28;20036;-56
2021/09/19 12:19:18;;;;;;;2.42;1.63;;;23.50;53.00;;;;;;5061633;28;20033;-62
2021/09/19 12:21:56;;;;;;;4.30;2.20;;;23.50;52.70;;;;;;5039039;28;20038;-58
2021/09/19 12:24:24;;;;;;;3.40;2.10;;;23.60;52.80;;;;;;5056153;28;20451;-64
2021/09/19 12:26:49;;;;;;;2.65;2.25;;;23.60;52.60;;;;;;5049621;28;20705;-59
2021/09/19 12:29:16;;;;;;;4.68;2.20;;;23.50;52.60;;;;;;5060942;28;20024;-51
2021/09/19 12:31:45;;;;;;;3.47;1.92;;;23.60;52.80;;;;;;5053944;28;20033;-57
2021/09/19 12:34:18;;;;;;;3.22;1.83;;;23.60;52.60;;;;;;5068760;28;20563;-54
2021/09/19 12:36:46;;;;;;;4.43;2.10;;;23.60;52.30;;;;;;5053376;28;20718;-59
2021/09/19 12:39:26;;;;;;;3.03;2.17;;;23.60;52.10;;;;;;5056009;28;20031;-58
2021/09/19 12:41:58;;;;;;;3.92;2.13;;;23.50;51.70;;;;;;5054802;28;20032;-63
2021/09/19 12:44:29;;;;;;;3.22;2.05;;;23.60;52.50;;;;;;5058832;28;20032;-60
2021/09/19 12:47:02;;;;;;;1.98;1.77;;;23.60;52.30;;;;;;5050502;28;20024;-62
2021/09/19 12:49:45;;;;;;;2.47;2.00;;;23.60;52.10;;;;;;5061025;28;20033;-58